Hangzhou Xiaoshan International Airport
ZSHC : now visible

Airfield :











YOU CAN JOIN US ON...

 
LOGIN :

Register | Disclaimer

   EN    FR    IT 

 









Legend :    VFR   Marginal VFR   IFR   Intensive IFR   Very Intensive IFR
Visi :
Ceiling :
>= 8 km
>= 3000ft
5 to 8 km
1000 to 3000 ft
1500m to 5 km
500 to 1000 ft
800 to 1500m
200 to 500 ft
< 800m
< 200 ft
Symbols :   Thunderstorms  Fog  Heavy snow  Heavy precipitations  Wind > 20 kt






- Airport Elevation : 23 ft
- IATA code : HGH


ZSHC - Hangzhou Xiaoshan International

CURRENT METAR :
  • 270430Z 08004MPS 8000 BKN020 10/05 Q1028 NOSIG

EXPIRED METARs :
  • 270400Z 07005MPS 8000 BKN020 10/06 Q1029 NOSIG
  • 270330Z 09004MPS 060V130 7000 BKN020 10/06 Q1029 NOSIG
  • 270300Z 08005MPS 7000 BKN020 10/05 Q1029 NOSIG
  • 270230Z 08004MPS 070V130 6000 BKN020 10/05 Q1029 NOSIG
  • 270200Z 12003MPS 070V150 7000 BKN020 10/06 Q1029 NOSIG

TAF TAF ZSHC
Valid from the 27 at 00:00 until the 28 at 00:00 UTC


262110Z 2700/2724 09004MPS 3000 BR BKN030 TX13/2706Z TN08/2721Z



MET'MAP, your aeronautical weather chart ! - Copyright ORBIFLY December 2007 - Disclaimer

ORBIFLY MET'MAP TEAM :

Programming & Development : Alexandra Zaïnal
Concept & original design : Baudouin d'Aumeries
Assistance for programming : Marc-Olivier Méhu
Technical & hardware support : Manuel Goepfert

Contact : metmap@orbifly.com




SOURCES & CREDITS :

   NOAA       Earth
Advisory